createdAt,value
2019-02-24T00:01:40.583Z,91.40
2019-02-24T00:04:07.895Z,91.50
2019-02-24T00:06:35.244Z,91.30
2019-02-24T00:09:02.727Z,91.50
2019-02-24T00:11:30.032Z,91.60
2019-02-24T00:13:57.342Z,91.50
2019-02-24T00:16:24.653Z,91.50
2019-02-24T00:18:52.056Z,91.40
2019-02-24T00:21:19.391Z,91.70
2019-02-24T00:23:46.761Z,91.50
2019-02-24T00:26:14.196Z,91.50
2019-02-24T00:29:00.991Z,91.50
2019-02-24T00:31:47.778Z,91.30
2019-02-24T00:34:15.176Z,91.40
2019-02-24T00:36:42.490Z,91.20
2019-02-24T00:39:09.885Z,91.50
2019-02-24T00:41:37.323Z,91.40
2019-02-24T00:44:04.675Z,91.60
2019-02-24T00:46:31.967Z,91.80
2019-02-24T00:48:59.339Z,91.60
2019-02-24T00:51:26.647Z,91.50
2019-02-24T00:53:53.999Z,91.60
2019-02-24T00:56:40.797Z,91.40
2019-02-24T00:59:08.105Z,91.20
2019-02-24T01:01:35.427Z,91.60
2019-02-24T01:04:02.762Z,91.70
2019-02-24T01:06:30.084Z,91.50
2019-02-24T01:08:57.422Z,91.10
2019-02-24T01:11:24.834Z,91.40
2019-02-24T01:13:53.910Z,91.70
2019-02-24T01:16:21.386Z,91.70
2019-02-24T01:18:48.732Z,91.60
2019-02-24T01:21:16.051Z,91.90
2019-02-24T01:23:43.362Z,91.60
2019-02-24T01:26:10.757Z,91.80
2019-02-24T01:28:57.554Z,91.90
2019-02-24T01:31:24.914Z,91.80
2019-02-24T01:33:52.334Z,91.80
2019-02-24T01:36:19.733Z,91.70
2019-02-24T01:38:47.108Z,91.80
2019-02-24T01:41:14.399Z,91.80
2019-02-24T01:43:41.734Z,91.90
2019-02-24T01:46:09.059Z,92.10
2019-02-24T01:48:36.447Z,92.10
2019-02-24T01:51:03.783Z,92.50
2019-02-24T01:53:31.362Z,92.30
2019-02-24T01:55:58.788Z,92.10
2019-02-24T01:58:34.601Z,92.10
2019-02-24T02:00:55.391Z,92.10
2019-02-24T02:03:22.736Z,92.10
2019-02-24T02:06:09.521Z,92.10
2019-02-24T02:08:36.875Z,91.90
2019-02-24T02:11:23.938Z,91.90
2019-02-24T02:13:51.708Z,91.80
2019-02-24T02:16:19.131Z,91.90
2019-02-24T02:18:46.541Z,91.80
2019-02-24T02:21:13.866Z,92.00
2019-02-24T02:23:41.336Z,92.00
2019-02-24T02:26:08.789Z,91.90
2019-02-24T02:28:43.734Z,91.90
2019-02-24T02:31:05.391Z,92.30
2019-02-24T02:33:32.735Z,92.00
2019-02-24T02:36:00.042Z,92.00
2019-02-24T02:38:27.503Z,92.10
2019-02-24T02:40:54.932Z,92.00
2019-02-24T02:43:22.342Z,91.90
2019-02-24T02:45:49.671Z,91.90
2019-02-24T02:48:16.999Z,92.00
2019-02-24T02:50:44.414Z,92.00
2019-02-24T02:53:11.707Z,92.00
2019-02-24T02:55:39.071Z,92.30
2019-02-24T02:58:06.388Z,92.30
2019-02-24T03:00:34.186Z,92.20
2019-02-24T03:03:01.638Z,92.00
2019-02-24T03:05:29.296Z,92.20
2019-02-24T03:08:13.633Z,92.30
2019-02-24T03:11:00.812Z,92.40
2019-02-24T03:13:28.965Z,92.30
2019-02-24T03:16:23.130Z,92.30
2019-02-24T03:18:50.674Z,92.10
2019-02-24T03:21:17.991Z,92.20
2019-02-24T03:23:45.328Z,92.30
2019-02-24T03:26:12.695Z,92.40
2019-02-24T03:28:39.999Z,92.90
2019-02-24T03:31:07.338Z,92.70
2019-02-24T03:33:34.695Z,92.20
2019-02-24T03:36:02.024Z,92.40
2019-02-24T03:38:29.342Z,92.50
2019-02-24T03:40:56.720Z,92.80
2019-02-24T03:43:24.053Z,92.60
2019-02-24T03:45:51.454Z,92.50
2019-02-24T03:48:18.865Z,92.40
2019-02-24T03:50:46.271Z,92.40
2019-02-24T03:53:13.597Z,92.40
2019-02-24T03:55:40.927Z,92.40
2019-02-24T03:58:08.250Z,92.60
2019-02-24T04:00:35.613Z,92.60
2019-02-24T04:03:02.965Z,92.60
2019-02-24T04:05:30.359Z,92.50
2019-02-24T04:07:57.702Z,92.50
2019-02-24T04:10:25.043Z,92.50
2019-02-24T04:12:52.354Z,92.60
2019-02-24T04:15:19.687Z,92.80
2019-02-24T04:17:47.008Z,92.50
2019-02-24T04:20:14.566Z,93.20
2019-02-24T04:22:41.868Z,92.40
2019-02-24T04:25:09.213Z,92.50
2019-02-24T04:27:36.517Z,92.60
2019-02-24T04:30:03.853Z,92.50
2019-02-24T04:32:31.229Z,92.50
2019-02-24T04:34:58.698Z,92.50
2019-02-24T04:37:26.046Z,92.50
2019-02-24T04:39:53.540Z,92.60
2019-02-24T04:42:20.883Z,92.60
2019-02-24T04:44:48.304Z,92.40
2019-02-24T04:47:15.710Z,92.50
2019-02-24T04:49:43.049Z,92.30
2019-02-24T04:52:10.396Z,92.40
2019-02-24T04:54:37.927Z,92.30
2019-02-24T04:57:05.539Z,92.30
2019-02-24T04:59:35.256Z,92.30
2019-02-24T05:02:02.163Z,92.20
2019-02-24T05:04:29.487Z,92.20
2019-02-24T05:07:18.114Z,92.20
2019-02-24T05:09:45.483Z,92.00
2019-02-24T05:12:12.800Z,92.80
2019-02-24T05:14:40.135Z,92.60
2019-02-24T05:17:07.475Z,92.50
2019-02-24T05:19:34.764Z,92.30
2019-02-24T05:22:02.122Z,92.60
2019-02-24T05:24:29.430Z,92.40
2019-02-24T05:27:16.532Z,92.40
2019-02-24T05:29:46.263Z,92.50
2019-02-24T05:32:13.111Z,92.60
2019-02-24T05:34:59.918Z,92.60
2019-02-24T05:37:27.284Z,92.30
2019-02-24T05:39:54.614Z,92.50
2019-02-24T05:42:22.007Z,92.40
2019-02-24T05:44:49.356Z,92.30
2019-02-24T05:47:16.798Z,92.70
2019-02-24T05:49:44.159Z,92.40
2019-02-24T05:52:11.504Z,92.50
2019-02-24T05:54:38.835Z,92.50
2019-02-24T05:57:06.164Z,92.40
2019-02-24T05:59:33.806Z,92.40
2019-02-24T06:02:01.121Z,92.40
2019-02-24T06:04:34.091Z,92.30
2019-02-24T06:07:01.447Z,92.30
2019-02-24T06:09:28.839Z,92.20
2019-02-24T06:11:56.593Z,92.20
2019-02-24T06:14:23.915Z,92.20
2019-02-24T06:16:51.295Z,92.50
2019-02-24T06:19:18.647Z,92.30
2019-02-24T06:21:46.023Z,92.30
2019-02-24T06:24:13.830Z,92.40
2019-02-24T06:26:41.138Z,92.30
2019-02-24T06:29:08.484Z,92.20
2019-02-24T06:31:35.944Z,92.20
2019-02-24T06:34:03.316Z,92.10
2019-02-24T06:36:50.228Z,92.20
2019-02-24T06:39:19.123Z,92.10
2019-02-24T06:41:46.479Z,92.30
2019-02-24T06:44:13.836Z,92.30
2019-02-24T06:46:41.138Z,92.20
2019-02-24T06:49:08.435Z,92.20
2019-02-24T06:51:35.815Z,92.40
2019-02-24T06:54:03.158Z,92.30
2019-02-24T06:56:30.501Z,92.40
2019-02-24T06:58:58.219Z,92.30
2019-02-24T07:01:25.619Z,92.50
2019-02-24T07:03:54.556Z,92.50
2019-02-24T07:06:22.239Z,92.30
2019-02-24T07:08:49.696Z,92.60
2019-02-24T07:11:17.104Z,92.50
2019-02-24T07:13:46.998Z,92.40
2019-02-24T07:16:14.359Z,92.70
2019-02-24T07:18:41.723Z,92.50
2019-02-24T07:21:09.165Z,92.60
2019-02-24T07:23:36.550Z,92.70
2019-02-24T07:26:16.112Z,92.50
2019-02-24T07:28:43.438Z,92.40
2019-02-24T07:31:10.763Z,92.70
2019-02-24T07:33:38.130Z,92.60
2019-02-24T07:36:05.455Z,92.50
2019-02-24T07:38:32.871Z,92.40
2019-02-24T07:41:00.285Z,92.50
2019-02-24T07:43:27.762Z,92.50
2019-02-24T07:45:55.122Z,92.50
2019-02-24T07:48:22.481Z,92.40
2019-02-24T07:50:49.835Z,92.30
2019-02-24T07:53:17.252Z,92.40
2019-02-24T07:55:46.660Z,92.30
2019-02-24T07:58:14.418Z,92.40
2019-02-24T08:00:41.728Z,92.20
2019-02-24T08:03:09.043Z,92.10
2019-02-24T08:05:36.398Z,92.30
2019-02-24T08:08:03.799Z,92.20
2019-02-24T08:10:31.217Z,92.00
2019-02-24T08:12:58.566Z,91.80
2019-02-24T08:15:25.922Z,92.10
2019-02-24T08:17:53.264Z,92.10
2019-02-24T08:20:20.606Z,91.80
2019-02-24T08:22:47.985Z,92.10
2019-02-24T08:25:15.355Z,91.90
2019-02-24T08:27:42.699Z,92.10
2019-02-24T08:30:10.157Z,91.80
2019-02-24T08:32:40.385Z,92.20
2019-02-24T08:35:07.716Z,91.80
2019-02-24T08:37:35.106Z,92.00
2019-02-24T08:40:02.558Z,92.00
2019-02-24T08:42:29.928Z,91.80
2019-02-24T08:44:57.290Z,91.60
2019-02-24T08:47:26.907Z,91.90
2019-02-24T08:49:54.219Z,91.60
2019-02-24T08:52:21.621Z,91.90
2019-02-24T08:54:48.956Z,91.40
2019-02-24T08:57:16.322Z,91.60
2019-02-24T08:59:43.677Z,91.70
2019-02-24T09:02:11.010Z,91.50
2019-02-24T09:04:38.355Z,92.20
2019-02-24T09:07:05.842Z,91.60
2019-02-24T09:09:33.172Z,91.70
2019-02-24T09:12:00.523Z,91.60
2019-02-24T09:14:27.990Z,91.50
2019-02-24T09:16:55.367Z,91.50
2019-02-24T09:19:22.779Z,91.00
2019-02-24T09:21:50.192Z,91.20
2019-02-24T09:24:17.596Z,91.40
2019-02-24T09:26:45.028Z,91.40
2019-02-24T09:29:12.463Z,91.40
2019-02-24T09:31:39.808Z,91.40
2019-02-24T09:34:07.215Z,91.00
2019-02-24T09:36:34.607Z,90.90
2019-02-24T09:39:22.496Z,91.60
2019-02-24T09:41:49.865Z,90.90
2019-02-24T09:44:17.279Z,90.30
2019-02-24T09:46:44.690Z,90.70
2019-02-24T09:49:12.037Z,90.80
2019-02-24T09:51:41.232Z,90.60
2019-02-24T09:54:08.727Z,90.00
2019-02-24T09:56:36.271Z,90.50
2019-02-24T10:02:00.055Z,90.20
2019-02-24T10:04:46.903Z,90.50
2019-02-24T10:07:14.586Z,90.60
2019-02-24T10:09:41.938Z,90.80
2019-02-24T10:12:09.738Z,90.60
2019-02-24T10:14:37.084Z,81.40
2019-02-24T10:17:04.673Z,90.10
2019-02-24T10:19:32.137Z,89.80
2019-02-24T10:21:59.465Z,88.50
2019-02-24T10:24:27.108Z,88.60
2019-02-24T10:26:54.544Z,89.80
2019-02-24T10:29:21.976Z,89.00
2019-02-24T10:31:49.358Z,88.50
2019-02-24T10:34:16.729Z,87.10
2019-02-24T10:36:44.176Z,87.30
2019-02-24T10:39:12.376Z,87.90
2019-02-24T10:41:39.727Z,87.90
2019-02-24T10:44:07.083Z,86.80
2019-02-24T10:46:34.575Z,82.00
2019-02-24T10:49:03.559Z,84.70
2019-02-24T10:51:31.191Z,83.60
2019-02-24T10:53:58.590Z,81.60
2019-02-24T10:56:26.352Z,83.60
2019-02-24T10:58:53.751Z,78.70
2019-02-24T11:01:29.299Z,81.50
2019-02-24T11:03:50.651Z,81.80
2019-02-24T11:06:18.784Z,79.80
2019-02-24T11:08:46.147Z,83.20
2019-02-24T11:11:13.583Z,79.80
2019-02-24T11:13:40.929Z,75.50
2019-02-24T11:16:08.311Z,81.50
2019-02-24T11:18:35.670Z,76.10
2019-02-24T11:21:03.103Z,73.00
2019-02-24T11:23:30.714Z,73.90
2019-02-24T11:25:58.159Z,71.90
2019-02-24T11:28:25.573Z,73.40
2019-02-24T11:30:52.892Z,71.60
2019-02-24T11:33:20.275Z,77.60
2019-02-24T11:35:47.727Z,77.50
2019-02-24T11:38:15.058Z,75.70
2019-02-24T11:40:42.415Z,77.50
2019-02-24T11:43:09.760Z,76.80
2019-02-24T11:45:37.445Z,76.10
2019-02-24T11:48:04.860Z,77.10
2019-02-24T11:50:32.202Z,78.10
2019-02-24T11:52:59.547Z,76.20
2019-02-24T11:55:26.847Z,75.60
2019-02-24T11:57:54.264Z,71.70
2019-02-24T12:00:21.695Z,74.80
2019-02-24T12:02:49.024Z,74.70
2019-02-24T12:05:16.410Z,75.50
2019-02-24T12:07:52.818Z,77.40
2019-02-24T12:10:20.290Z,76.20
2019-02-24T12:12:47.976Z,74.90
2019-02-24T12:15:15.329Z,73.70
2019-02-24T12:17:42.720Z,75.30
2019-02-24T12:20:10.138Z,76.10
2019-02-24T12:22:37.563Z,73.60
2019-02-24T12:25:05.570Z,74.60
2019-02-24T12:27:52.408Z,73.30
2019-02-24T12:30:21.347Z,70.00
2019-02-24T12:32:49.274Z,75.20
2019-02-24T12:35:16.597Z,71.40
2019-02-24T12:37:43.954Z,71.40
2019-02-24T12:40:11.343Z,72.30
2019-02-24T12:42:38.660Z,71.10
2019-02-24T12:45:06.009Z,68.20
2019-02-24T12:47:33.477Z,69.00
2019-02-24T12:50:03.473Z,70.60
2019-02-24T12:52:30.092Z,68.80
2019-02-24T12:54:57.582Z,61.60
2019-02-24T12:57:25.022Z,70.00
2019-02-24T12:59:52.368Z,61.90
2019-02-24T13:02:19.708Z,66.60
2019-02-24T13:04:47.091Z,65.70
2019-02-24T13:07:14.417Z,59.30
2019-02-24T13:09:41.777Z,59.10
2019-02-24T13:12:09.151Z,58.20
2019-02-24T13:14:36.584Z,57.20
2019-02-24T13:17:24.624Z,57.70
2019-02-24T13:19:52.785Z,59.50
2019-02-24T13:22:20.147Z,62.50
2019-02-24T13:24:47.638Z,58.00
2019-02-24T13:27:14.983Z,58.80
2019-02-24T13:29:42.446Z,63.60
2019-02-24T13:32:14.792Z,61.00
2019-02-24T13:34:59.301Z,62.20
2019-02-24T13:37:26.655Z,59.40
2019-02-24T13:39:54.093Z,59.40
2019-02-24T13:42:21.594Z,62.50
2019-02-24T13:44:49.054Z,60.90
2019-02-24T13:47:16.391Z,61.10
2019-02-24T13:49:43.809Z,67.20
2019-02-24T13:52:11.172Z,66.80
2019-02-24T13:54:38.632Z,65.00
2019-02-24T13:57:06.066Z,64.60
2019-02-24T13:59:33.445Z,61.90
2019-02-24T14:02:02.011Z,67.60
2019-02-24T14:04:29.540Z,63.60
2019-02-24T14:06:56.906Z,65.80
2019-02-24T14:09:24.236Z,66.30
2019-02-24T14:11:51.576Z,67.30
2019-02-24T14:14:18.947Z,65.30
2019-02-24T14:17:05.787Z,65.90
2019-02-24T14:19:33.231Z,62.20
2019-02-24T14:22:20.026Z,59.60
2019-02-24T14:25:06.908Z,68.60
2019-02-24T14:27:34.271Z,67.40
2019-02-24T14:30:01.967Z,65.70
2019-02-24T14:32:48.742Z,63.10
2019-02-24T14:35:35.507Z,63.70
2019-02-24T14:38:02.862Z,67.00
2019-02-24T14:40:30.246Z,66.00
2019-02-24T14:42:57.658Z,65.80
2019-02-24T14:45:24.995Z,60.20
2019-02-24T14:47:52.430Z,67.20
2019-02-24T14:50:21.347Z,67.20
2019-02-24T14:52:48.730Z,66.10
2019-02-24T14:55:16.095Z,65.80
2019-02-24T14:57:43.474Z,59.90
2019-02-24T15:00:11.672Z,67.60
2019-02-24T15:02:42.555Z,70.70
2019-02-24T15:05:08.482Z,63.60
2019-02-24T15:07:35.791Z,66.10
2019-02-24T15:10:03.559Z,67.30
2019-02-24T15:12:30.904Z,65.40
2019-02-24T15:14:58.256Z,67.40
2019-02-24T15:17:25.619Z,65.80
2019-02-24T15:19:52.974Z,66.20
2019-02-24T15:22:20.406Z,66.00
2019-02-24T15:24:48.708Z,65.50
2019-02-24T15:27:16.089Z,69.20
2019-02-24T15:30:04.091Z,66.30
2019-02-24T15:32:31.704Z,69.10
2019-02-24T15:34:59.175Z,68.90
2019-02-24T15:37:26.523Z,68.90
2019-02-24T15:39:54.018Z,70.80
2019-02-24T15:42:21.460Z,70.70
2019-02-24T15:44:48.794Z,68.60
2019-02-24T15:47:16.132Z,71.70
2019-02-24T15:49:43.449Z,70.50
2019-02-24T15:52:10.858Z,71.20
2019-02-24T15:54:38.213Z,72.20
2019-02-24T15:57:05.583Z,67.60
2019-02-24T15:59:33.033Z,65.50
2019-02-24T16:02:09.396Z,68.50
2019-02-24T16:04:36.760Z,69.70
2019-02-24T16:07:05.825Z,69.30
2019-02-24T16:09:33.192Z,72.00
2019-02-24T16:12:00.622Z,71.90
2019-02-24T16:14:29.657Z,70.10
2019-02-24T16:16:57.002Z,65.10
2019-02-24T16:19:45.325Z,68.40
2019-02-24T16:22:12.861Z,72.70
2019-02-24T16:24:40.238Z,71.40
2019-02-24T16:27:07.672Z,70.10
2019-02-24T16:29:35.098Z,70.90
2019-02-24T16:32:02.455Z,71.60
2019-02-24T16:34:29.928Z,72.10
2019-02-24T16:36:57.300Z,73.20
2019-02-24T16:39:24.647Z,74.40
2019-02-24T16:41:52.099Z,72.70
2019-02-24T16:44:19.458Z,72.00
2019-02-24T16:46:46.830Z,73.40
2019-02-24T16:49:16.952Z,71.90
2019-02-24T16:51:44.316Z,71.70
2019-02-24T16:54:11.647Z,71.00
2019-02-24T16:56:38.962Z,68.30
2019-02-24T16:59:06.311Z,70.30
2019-02-24T17:01:33.742Z,66.30
2019-02-24T17:04:01.093Z,68.00
2019-02-24T17:06:28.430Z,68.30
2019-02-24T17:09:01.323Z,70.00
2019-02-24T17:11:25.019Z,71.20
2019-02-24T17:13:52.363Z,69.30
2019-02-24T17:16:19.757Z,68.30
2019-02-24T17:18:47.075Z,68.50
2019-02-24T17:21:14.505Z,68.60
2019-02-24T17:23:49.756Z,67.50
2019-02-24T17:26:11.311Z,70.80
2019-02-24T17:28:38.740Z,71.90
2019-02-24T17:31:07.076Z,72.40
2019-02-24T17:33:54.409Z,69.00
2019-02-24T17:36:21.807Z,72.40
2019-02-24T17:38:49.118Z,72.20
2019-02-24T17:41:16.439Z,73.20
2019-02-24T17:43:43.763Z,72.50
2019-02-24T17:46:11.087Z,72.70
2019-02-24T17:48:38.488Z,71.90
2019-02-24T17:51:05.835Z,72.60
2019-02-24T17:53:33.142Z,73.10
2019-02-24T17:56:20.302Z,72.60
2019-02-24T17:58:47.660Z,74.30
2019-02-24T18:01:15.017Z,74.50
2019-02-24T18:03:42.451Z,74.70
2019-02-24T18:06:09.996Z,74.90
2019-02-24T18:08:57.195Z,75.40
2019-02-24T18:11:27.903Z,75.10
2019-02-24T18:13:55.410Z,75.40
2019-02-24T18:16:22.870Z,74.00
2019-02-24T18:18:50.496Z,73.60
2019-02-24T18:21:17.988Z,75.50
2019-02-24T18:23:45.346Z,75.60
2019-02-24T18:26:12.829Z,75.90
2019-02-24T18:28:40.267Z,76.90
2019-02-24T18:31:07.632Z,77.20
2019-02-24T18:33:35.057Z,77.00
2019-02-24T18:36:02.624Z,77.60
2019-02-24T18:38:30.052Z,77.10
2019-02-24T18:40:57.417Z,77.50
2019-02-24T18:43:24.884Z,78.40
2019-02-24T18:45:52.218Z,77.20
2019-02-24T18:48:19.563Z,77.50
2019-02-24T18:50:46.955Z,77.60
2019-02-24T18:53:14.294Z,78.30
2019-02-24T18:55:41.885Z,78.40
2019-02-24T18:58:09.382Z,79.00
2019-02-24T19:00:36.845Z,79.50
2019-02-24T19:03:04.435Z,79.10
2019-02-24T19:05:31.841Z,79.50
2019-02-24T19:07:59.341Z,79.00
2019-02-24T19:10:26.710Z,80.00
2019-02-24T19:12:55.570Z,80.30
2019-02-24T19:15:23.038Z,79.50
2019-02-24T19:17:50.398Z,79.80
2019-02-24T19:20:18.237Z,79.50
2019-02-24T19:22:45.783Z,80.40
2019-02-24T19:25:32.986Z,80.40
2019-02-24T19:28:00.400Z,80.40
2019-02-24T19:30:48.106Z,80.40
2019-02-24T19:33:15.595Z,80.30
2019-02-24T19:35:42.987Z,81.00
2019-02-24T19:38:10.492Z,81.30
2019-02-24T19:40:37.949Z,81.30
2019-02-24T19:43:05.533Z,81.70
2019-02-24T19:45:32.887Z,81.90
2019-02-24T19:48:00.294Z,81.50
2019-02-24T19:50:27.625Z,81.70
2019-02-24T19:52:54.986Z,81.70
2019-02-24T19:55:22.486Z,82.50
2019-02-24T19:58:09.401Z,83.30
2019-02-24T20:00:38.595Z,82.10
2019-02-24T20:03:25.483Z,82.60
2019-02-24T20:05:52.828Z,82.20
2019-02-24T20:08:20.206Z,82.80
2019-02-24T20:10:47.858Z,83.00
2019-02-24T20:13:34.838Z,83.30
2019-02-24T20:16:02.264Z,83.20
2019-02-24T20:18:29.608Z,83.40
2019-02-24T20:20:57.008Z,82.80
2019-02-24T20:23:24.335Z,83.60
2019-02-24T20:25:51.657Z,84.10
2019-02-24T20:28:19.147Z,84.30
2019-02-24T20:30:46.479Z,84.20
2019-02-24T20:33:13.795Z,83.80
2019-02-24T20:35:41.127Z,83.60
2019-02-24T20:38:08.460Z,83.70
2019-02-24T20:40:35.803Z,83.50
2019-02-24T20:43:03.247Z,84.60
2019-02-24T20:45:30.771Z,85.70
2019-02-24T20:47:58.207Z,85.00
2019-02-24T20:50:25.660Z,84.20
2019-02-24T20:52:53.186Z,83.70
2019-02-24T20:55:20.535Z,83.70
2019-02-24T20:57:47.842Z,84.10
2019-02-24T21:00:24.087Z,85.60
2019-02-24T21:02:51.422Z,85.60
2019-02-24T21:05:18.876Z,85.90
2019-02-24T21:07:46.252Z,85.50
2019-02-24T21:10:13.571Z,84.80
2019-02-24T21:12:40.940Z,84.80
2019-02-24T21:15:09.335Z,85.30
2019-02-24T21:17:36.708Z,85.70
2019-02-24T21:20:05.764Z,86.00
2019-02-24T21:22:33.351Z,85.60
2019-02-24T21:25:00.721Z,85.00
2019-02-24T21:27:28.044Z,85.70
2019-02-24T21:29:55.399Z,86.30
2019-02-24T21:32:22.720Z,85.20
2019-02-24T21:34:50.811Z,85.50
2019-02-24T21:37:18.258Z,85.00
2019-02-24T21:39:45.589Z,85.90
2019-02-24T21:42:12.890Z,85.50
2019-02-24T21:44:40.256Z,84.80
2019-02-24T21:47:07.732Z,84.70
2019-02-24T21:49:35.136Z,84.70
2019-02-24T21:52:02.542Z,85.90
2019-02-24T21:54:29.858Z,85.80
2019-02-24T21:56:57.292Z,85.40
2019-02-24T21:59:24.630Z,86.10
2019-02-24T22:01:51.930Z,86.20
2019-02-24T22:04:19.302Z,86.00
2019-02-24T22:06:46.647Z,85.50
2019-02-24T22:09:13.997Z,85.90
2019-02-24T22:11:41.357Z,85.90
2019-02-24T22:14:09.019Z,85.50
2019-02-24T22:16:36.362Z,86.50
2019-02-24T22:19:03.773Z,86.30
2019-02-24T22:21:31.256Z,85.90
2019-02-24T22:23:58.696Z,85.70
2019-02-24T22:26:45.812Z,86.10
2019-02-24T22:29:13.168Z,85.80
2019-02-24T22:32:00.014Z,86.10
2019-02-24T22:34:27.338Z,85.50
2019-02-24T22:36:54.654Z,85.50
2019-02-24T22:39:23.429Z,85.80
2019-02-24T22:41:50.885Z,85.80
2019-02-24T22:44:18.253Z,85.80
2019-02-24T22:46:45.675Z,85.40
2019-02-24T22:49:13.027Z,86.40
2019-02-24T22:51:40.399Z,85.80
2019-02-24T22:54:07.704Z,86.00
2019-02-24T22:56:54.495Z,86.30
2019-02-24T22:59:21.863Z,85.40
2019-02-24T23:01:49.335Z,85.60
2019-02-24T23:04:16.911Z,86.10
2019-02-24T23:06:44.251Z,86.40
2019-02-24T23:09:31.147Z,86.40
2019-02-24T23:11:58.476Z,86.20
2019-02-24T23:14:25.775Z,86.50
2019-02-24T23:16:53.155Z,86.30
2019-02-24T23:19:20.590Z,85.70
2019-02-24T23:21:48.005Z,85.70
2019-02-24T23:24:15.358Z,85.60
2019-02-24T23:27:02.251Z,86.20
2019-02-24T23:29:29.600Z,85.80
2019-02-24T23:31:56.947Z,85.80
2019-02-24T23:34:24.338Z,86.60
2019-02-24T23:36:51.715Z,86.00
2019-02-24T23:39:19.041Z,86.60
2019-02-24T23:41:46.567Z,86.20
2019-02-24T23:44:33.461Z,86.60
2019-02-24T23:47:00.865Z,86.70
2019-02-24T23:49:28.168Z,86.70
2019-02-24T23:51:55.493Z,86.20
2019-02-24T23:54:22.805Z,86.10
2019-02-24T23:56:50.130Z,86.20
2019-02-24T23:59:17.583Z,87.10
